sensor_id;sensor_type;location;lat;lon;timestamp;temperature;humidity
15450;DHT22;7826;49.784;9.934;2024-01-15T00:00:26;1.40;99.90
15450;DHT22;7826;49.784;9.934;2024-01-15T00:02:52;1.40;99.90
15450;DHT22;7826;49.784;9.934;2024-01-15T00:05:18;1.40;99.90
15450;DHT22;7826;49.784;9.934;2024-01-15T00:07:44;1.30;99.90
15450;DHT22;7826;49.784;9.934;2024-01-15T00:10:10;1.40;99.90
15450;DHT22;7826;49.784;9.934;2024-01-15T00:12:36;1.40;99.90
15450;DHT22;7826;49.784;9.934;2024-01-15T00:15:03;1.40;99.90
15450;DHT22;7826;49.784;9.934;2024-01-15T00:17:29;1.40;99.90
15450;DHT22;7826;49.784;9.934;2024-01-15T00:19:55;1.40;99.90
15450;DHT22;7826;49.784;9.934;2024-01-15T00:22:21;1.50;99.90
15450;DHT22;7826;49.784;9.934;2024-01-15T00:24:47;1.40;99.90
15450;DHT22;7826;49.784;9.934;2024-01-15T00:27:13;1.50;99.90
15450;DHT22;7826;49.784;9.934;2024-01-15T00:29:39;1.50;99.90
15450;DHT22;7826;49.784;9.934;2024-01-15T00:32:06;1.50;99.90
15450;DHT22;7826;49.784;9.934;2024-01-15T00:34:32;1.50;99.90
15450;DHT22;7826;49.784;9.934;2024-01-15T00:36:58;1.50;99.90
15450;DHT22;7826;49.784;9.934;2024-01-15T00:39:24;1.50;99.90
15450;DHT22;7826;49.784;9.934;2024-01-15T00:41:50;1.50;99.90
15450;DHT22;7826;49.784;9.934;2024-01-15T00:44:16;1.50;99.90
15450;DHT22;7826;49.784;9.934;2024-01-15T00:46:44;1.50;99.90
15450;DHT22;7826;49.784;9.934;2024-01-15T00:49:12;1.50;99.90
15450;DHT22;7826;49.784;9.934;2024-01-15T00:51:39;1.60;99.90
15450;DHT22;7826;49.784;9.934;2024-01-15T00:54:06;1.60;99.90
15450;DHT22;7826;49.784;9.934;2024-01-15T00:56:33;1.60;99.90
15450;DHT22;7826;49.784;9.934;2024-01-15T00:59:00;1.50;99.90
15450;DHT22;7826;49.784;9.934;2024-01-15T01:01:26;1.50;99.90
15450;DHT22;7826;49.784;9.934;2024-01-15T01:03:52;1.50;99.90
15450;DHT22;7826;49.784;9.934;2024-01-15T01:06:18;1.50;99.90
15450;DHT22;7826;49.784;9.934;2024-01-15T01:08:45;1.50;99.90
15450;DHT22;7826;49.784;9.934;2024-01-15T01:11:15;1.40;99.90
15450;DHT22;7826;49.784;9.934;2024-01-15T01:13:42;1.40;99.90
15450;DHT22;7826;49.784;9.934;2024-01-15T01:16:08;1.40;99.90
15450;DHT22;7826;49.784;9.934;2024-01-15T01:18:35;1.30;99.90
15450;DHT22;7826;49.784;9.934;2024-01-15T01:21:01;1.20;99.90
15450;DHT22;7826;49.784;9.934;2024-01-15T01:23:27;1.20;99.90
15450;DHT22;7826;49.784;9.934;2024-01-15T01:25:53;1.10;99.90
15450;DHT22;7826;49.784;9.934;2024-01-15T01:28:19;1.10;99.90
15450;DHT22;7826;49.784;9.934;2024-01-15T01:30:46;1.10;99.90
15450;DHT22;7826;49.784;9.934;2024-01-15T01:33:12;1.10;99.90
15450;DHT22;7826;49.784;9.934;2024-01-15T01:35:38;1.20;99.90
15450;DHT22;7826;49.784;9.934;2024-01-15T01:38:04;1.10;99.90
15450;DHT22;7826;49.784;9.934;2024-01-15T01:40:30;1.20;99.90
15450;DHT22;7826;49.784;9.934;2024-01-15T01:42:56;1.20;99.90
15450;DHT22;7826;49.784;9.934;2024-01-15T01:45:22;1.10;99.90
15450;DHT22;7826;49.784;9.934;2024-01-15T01:47:49;1.20;99.90
15450;DHT22;7826;49.784;9.934;2024-01-15T01:50:15;1.20;99.90
15450;DHT22;7826;49.784;9.934;2024-01-15T01:52:41;1.20;99.90
15450;DHT22;7826;49.784;9.934;2024-01-15T01:55:09;1.20;99.90
15450;DHT22;7826;49.784;9.934;2024-01-15T01:57:37;1.20;99.90
15450;DHT22;7826;49.784;9.934;2024-01-15T02:00:03;1.20;99.90
15450;DHT22;7826;49.784;9.934;2024-01-15T02:02:31;1.20;99.90
15450;DHT22;7826;49.784;9.934;2024-01-15T02:04:58;1.10;99.90
15450;DHT22;7826;49.784;9.934;2024-01-15T02:07:24;1.30;99.90
15450;DHT22;7826;49.784;9.934;2024-01-15T02:09:50;1.10;99.90
15450;DHT22;7826;49.784;9.934;2024-01-15T02:12:16;1.10;99.90
15450;DHT22;7826;49.784;9.934;2024-01-15T02:14:43;1.10;99.90
15450;DHT22;7826;49.784;9.934;2024-01-15T02:17:09;1.00;99.90
15450;DHT22;7826;49.784;9.934;2024-01-15T02:19:35;1.00;99.90
15450;DHT22;7826;49.784;9.934;2024-01-15T02:22:01;1.10;99.90
15450;DHT22;7826;49.784;9.934;2024-01-15T02:24:27;1.00;99.90
15450;DHT22;7826;49.784;9.934;2024-01-15T02:26:53;0.90;99.90
15450;DHT22;7826;49.784;9.934;2024-01-15T02:29:19;0.90;99.90
15450;DHT22;7826;49.784;9.934;2024-01-15T02:31:45;0.90;99.90
15450;DHT22;7826;49.784;9.934;2024-01-15T02:34:12;0.90;99.90
15450;DHT22;7826;49.784;9.934;2024-01-15T02:36:38;0.90;99.90
15450;DHT22;7826;49.784;9.934;2024-01-15T02:39:04;1.00;99.90
15450;DHT22;7826;49.784;9.934;2024-01-15T02:41:30;1.00;99.90
15450;DHT22;7826;49.784;9.934;2024-01-15T02:43:56;1.00;99.90
15450;DHT22;7826;49.784;9.934;2024-01-15T02:46:22;1.00;99.90
15450;DHT22;7826;49.784;9.934;2024-01-15T02:48:48;0.90;99.90
15450;DHT22;7826;49.784;9.934;2024-01-15T02:51:14;0.90;99.90
15450;DHT22;7826;49.784;9.934;2024-01-15T02:53:40;0.90;99.90
15450;DHT22;7826;49.784;9.934;2024-01-15T02:56:07;0.90;99.90
15450;DHT22;7826;49.784;9.934;2024-01-15T02:58:33;1.00;99.90
15450;DHT22;7826;49.784;9.934;2024-01-15T03:00:59;0.90;99.90
15450;DHT22;7826;49.784;9.934;2024-01-15T03:03:26;0.90;99.90
15450;DHT22;7826;49.784;9.934;2024-01-15T03:05:52;0.90;99.90
15450;DHT22;7826;49.784;9.934;2024-01-15T03:08:18;0.90;99.90
15450;DHT22;7826;49.784;9.934;2024-01-15T03:10:44;0.90;99.90
15450;DHT22;7826;49.784;9.934;2024-01-15T03:13:10;1.00;99.90
15450;DHT22;7826;49.784;9.934;2024-01-15T03:15:36;1.00;99.90
15450;DHT22;7826;49.784;9.934;2024-01-15T03:18:02;1.10;99.90
15450;DHT22;7826;49.784;9.934;2024-01-15T03:20:29;1.00;99.90
15450;DHT22;7826;49.784;9.934;2024-01-15T03:22:55;1.10;99.90
15450;DHT22;7826;49.784;9.934;2024-01-15T03:25:21;1.00;99.90
15450;DHT22;7826;49.784;9.934;2024-01-15T03:27:47;1.20;99.90
15450;DHT22;7826;49.784;9.934;2024-01-15T03:30:13;1.00;99.90
15450;DHT22;7826;49.784;9.934;2024-01-15T03:32:39;1.10;99.90
15450;DHT22;7826;49.784;9.934;2024-01-15T03:35:06;1.10;99.90
15450;DHT22;7826;49.784;9.934;2024-01-15T03:37:32;1.10;99.90
15450;DHT22;7826;49.784;9.934;2024-01-15T03:39:58;1.10;99.90
15450;DHT22;7826;49.784;9.934;2024-01-15T03:42:24;1.10;99.90
15450;DHT22;7826;49.784;9.934;2024-01-15T03:44:51;1.10;99.90
15450;DHT22;7826;49.784;9.934;2024-01-15T03:47:17;1.20;99.90
15450;DHT22;7826;49.784;9.934;2024-01-15T03:49:43;1.20;99.90
15450;DHT22;7826;49.784;9.934;2024-01-15T03:52:09;1.20;99.90
15450;DHT22;7826;49.784;9.934;2024-01-15T03:54:35;1.20;99.90
15450;DHT22;7826;49.784;9.934;2024-01-15T03:57:01;1.20;99.90
15450;DHT22;7826;49.784;9.934;2024-01-15T03:59:27;1.20;99.90
15450;DHT22;7826;49.784;9.934;2024-01-15T04:01:53;1.20;99.90
15450;DHT22;7826;49.784;9.934;2024-01-15T04:04:19;1.20;99.90
15450;DHT22;7826;49.784;9.934;2024-01-15T04:06:47;1.30;99.90
15450;DHT22;7826;49.784;9.934;2024-01-15T04:09:13;1.30;99.90
15450;DHT22;7826;49.784;9.934;2024-01-15T04:11:40;1.30;99.90
15450;DHT22;7826;49.784;9.934;2024-01-15T04:14:06;1.30;99.90
15450;DHT22;7826;49.784;9.934;2024-01-15T04:16:32;1.30;99.90
15450;DHT22;7826;49.784;9.934;2024-01-15T04:18:58;1.30;99.90
15450;DHT22;7826;49.784;9.934;2024-01-15T04:21:24;1.30;99.90
15450;DHT22;7826;49.784;9.934;2024-01-15T04:23:50;1.30;99.90
15450;DHT22;7826;49.784;9.934;2024-01-15T04:26:17;1.30;99.90
15450;DHT22;7826;49.784;9.934;2024-01-15T04:28:43;1.40;99.90
15450;DHT22;7826;49.784;9.934;2024-01-15T04:31:09;1.40;99.90
15450;DHT22;7826;49.784;9.934;2024-01-15T04:33:35;1.40;99.90
15450;DHT22;7826;49.784;9.934;2024-01-15T04:36:03;1.40;99.90
15450;DHT22;7826;49.784;9.934;2024-01-15T04:38:29;1.40;99.90
15450;DHT22;7826;49.784;9.934;2024-01-15T04:40:55;1.40;99.90
15450;DHT22;7826;49.784;9.934;2024-01-15T04:43:21;1.40;99.90
15450;DHT22;7826;49.784;9.934;2024-01-15T04:45:48;1.50;99.90
15450;DHT22;7826;49.784;9.934;2024-01-15T04:48:14;1.40;99.90
15450;DHT22;7826;49.784;9.934;2024-01-15T04:50:40;1.40;99.90
15450;DHT22;7826;49.784;9.934;2024-01-15T04:53:06;1.40;99.90
15450;DHT22;7826;49.784;9.934;2024-01-15T04:55:32;1.50;99.90
15450;DHT22;7826;49.784;9.934;2024-01-15T04:57:58;1.40;99.90
15450;DHT22;7826;49.784;9.934;2024-01-15T05:00:25;1.40;99.90
15450;DHT22;7826;49.784;9.934;2024-01-15T05:02:51;1.50;99.90
15450;DHT22;7826;49.784;9.934;2024-01-15T05:05:17;1.40;99.90
15450;DHT22;7826;49.784;9.934;2024-01-15T05:07:43;1.50;99.90
15450;DHT22;7826;49.784;9.934;2024-01-15T05:10:09;1.50;99.90
15450;DHT22;7826;49.784;9.934;2024-01-15T05:12:36;1.50;99.90
15450;DHT22;7826;49.784;9.934;2024-01-15T05:15:02;1.50;99.90
15450;DHT22;7826;49.784;9.934;2024-01-15T05:17:28;1.50;99.90
15450;DHT22;7826;49.784;9.934;2024-01-15T05:19:54;1.50;99.90
15450;DHT22;7826;49.784;9.934;2024-01-15T05:22:20;1.50;99.90
15450;DHT22;7826;49.784;9.934;2024-01-15T05:24:47;1.50;99.90
15450;DHT22;7826;49.784;9.934;2024-01-15T05:27:13;1.50;99.90
15450;DHT22;7826;49.784;9.934;2024-01-15T05:29:39;1.50;99.90
15450;DHT22;7826;49.784;9.934;2024-01-15T05:32:06;1.50;99.90
15450;DHT22;7826;49.784;9.934;2024-01-15T05:34:32;1.50;99.90
15450;DHT22;7826;49.784;9.934;2024-01-15T05:36:58;1.50;99.90
15450;DHT22;7826;49.784;9.934;2024-01-15T05:39:24;1.60;99.90
15450;DHT22;7826;49.784;9.934;2024-01-15T05:41:50;1.50;99.90
15450;DHT22;7826;49.784;9.934;2024-01-15T05:44:16;1.50;99.90
15450;DHT22;7826;49.784;9.934;2024-01-15T05:46:42;1.50;99.90
15450;DHT22;7826;49.784;9.934;2024-01-15T05:49:09;1.60;99.90
15450;DHT22;7826;49.784;9.934;2024-01-15T05:51:35;1.60;99.90
15450;DHT22;7826;49.784;9.934;2024-01-15T05:54:01;1.60;99.90
15450;DHT22;7826;49.784;9.934;2024-01-15T05:56:27;1.60;99.90
15450;DHT22;7826;49.784;9.934;2024-01-15T05:58:53;1.60;99.90
15450;DHT22;7826;49.784;9.934;2024-01-15T06:01:20;1.60;99.90
15450;DHT22;7826;49.784;9.934;2024-01-15T06:03:46;1.70;99.90
15450;DHT22;7826;49.784;9.934;2024-01-15T06:06:12;1.70;99.90
15450;DHT22;7826;49.784;9.934;2024-01-15T06:08:38;1.60;99.90
15450;DHT22;7826;49.784;9.934;2024-01-15T06:11:05;1.70;99.90
15450;DHT22;7826;49.784;9.934;2024-01-15T06:13:32;1.60;99.90
15450;DHT22;7826;49.784;9.934;2024-01-15T06:15:58;1.60;99.90
15450;DHT22;7826;49.784;9.934;2024-01-15T06:18:24;1.60;99.90
15450;DHT22;7826;49.784;9.934;2024-01-15T06:20:50;1.60;99.90
15450;DHT22;7826;49.784;9.934;2024-01-15T06:23:16;1.60;99.90
15450;DHT22;7826;49.784;9.934;2024-01-15T06:25:42;1.60;99.90
15450;DHT22;7826;49.784;9.934;2024-01-15T06:28:08;1.50;99.90
15450;DHT22;7826;49.784;9.934;2024-01-15T06:30:35;1.60;99.90
15450;DHT22;7826;49.784;9.934;2024-01-15T06:33:01;1.50;99.90
15450;DHT22;7826;49.784;9.934;2024-01-15T06:35:27;1.50;99.90
15450;DHT22;7826;49.784;9.934;2024-01-15T06:37:54;1.50;99.90
15450;DHT22;7826;49.784;9.934;2024-01-15T06:40:20;1.50;99.90
15450;DHT22;7826;49.784;9.934;2024-01-15T06:42:46;1.50;99.90
15450;DHT22;7826;49.784;9.934;2024-01-15T06:45:12;1.50;99.90
15450;DHT22;7826;49.784;9.934;2024-01-15T06:47:38;1.50;99.90
15450;DHT22;7826;49.784;9.934;2024-01-15T06:50:05;1.50;99.90
15450;DHT22;7826;49.784;9.934;2024-01-15T06:52:32;1.50;99.90
15450;DHT22;7826;49.784;9.934;2024-01-15T06:54:59;1.50;99.90
15450;DHT22;7826;49.784;9.934;2024-01-15T06:57:25;1.50;99.90
15450;DHT22;7826;49.784;9.934;2024-01-15T06:59:51;1.50;99.90
15450;DHT22;7826;49.784;9.934;2024-01-15T07:02:17;1.50;99.90
15450;DHT22;7826;49.784;9.934;2024-01-15T07:04:43;1.50;99.90
15450;DHT22;7826;49.784;9.934;2024-01-15T07:07:09;1.50;99.90
15450;DHT22;7826;49.784;9.934;2024-01-15T07:09:35;1.50;99.90
15450;DHT22;7826;49.784;9.934;2024-01-15T07:12:01;1.50;99.90
15450;DHT22;7826;49.784;9.934;2024-01-15T07:14:28;1.50;99.90
15450;DHT22;7826;49.784;9.934;2024-01-15T07:16:54;1.50;99.90
15450;DHT22;7826;49.784;9.934;2024-01-15T07:19:20;1.50;99.90
15450;DHT22;7826;49.784;9.934;2024-01-15T07:21:46;1.50;99.90
15450;DHT22;7826;49.784;9.934;2024-01-15T07:24:12;1.50;99.90
15450;DHT22;7826;49.784;9.934;2024-01-15T07:26:38;1.50;99.90
15450;DHT22;7826;49.784;9.934;2024-01-15T07:29:05;1.50;99.90
15450;DHT22;7826;49.784;9.934;2024-01-15T07:31:31;1.50;99.90
15450;DHT22;7826;49.784;9.934;2024-01-15T07:33:58;1.50;99.90
15450;DHT22;7826;49.784;9.934;2024-01-15T07:36:25;1.60;99.90
15450;DHT22;7826;49.784;9.934;2024-01-15T07:38:52;1.50;99.90
15450;DHT22;7826;49.784;9.934;2024-01-15T07:41:18;1.60;99.90
15450;DHT22;7826;49.784;9.934;2024-01-15T07:43:44;1.60;99.90
15450;DHT22;7826;49.784;9.934;2024-01-15T07:46:10;1.60;99.90
15450;DHT22;7826;49.784;9.934;2024-01-15T07:48:36;1.50;99.90
15450;DHT22;7826;49.784;9.934;2024-01-15T07:51:02;1.50;99.90
15450;DHT22;7826;49.784;9.934;2024-01-15T07:53:30;1.60;99.90
15450;DHT22;7826;49.784;9.934;2024-01-15T07:55:56;1.60;99.90
15450;DHT22;7826;49.784;9.934;2024-01-15T07:58:22;1.60;99.90
15450;DHT22;7826;49.784;9.934;2024-01-15T08:00:48;1.60;99.90
15450;DHT22;7826;49.784;9.934;2024-01-15T08:03:14;1.60;99.90
15450;DHT22;7826;49.784;9.934;2024-01-15T08:05:41;1.60;99.90
15450;DHT22;7826;49.784;9.934;2024-01-15T08:08:07;1.70;99.90
15450;DHT22;7826;49.784;9.934;2024-01-15T08:10:33;1.70;99.90
15450;DHT22;7826;49.784;9.934;2024-01-15T08:12:59;1.70;99.90
15450;DHT22;7826;49.784;9.934;2024-01-15T08:15:25;1.50;99.90
15450;DHT22;7826;49.784;9.934;2024-01-15T08:17:51;1.70;99.90
15450;DHT22;7826;49.784;9.934;2024-01-15T08:20:17;1.70;99.90
15450;DHT22;7826;49.784;9.934;2024-01-15T08:22:43;1.80;99.90
15450;DHT22;7826;49.784;9.934;2024-01-15T08:25:09;1.60;99.90
15450;DHT22;7826;49.784;9.934;2024-01-15T08:27:36;1.70;99.90
15450;DHT22;7826;49.784;9.934;2024-01-15T08:30:03;1.70;99.90
15450;DHT22;7826;49.784;9.934;2024-01-15T08:32:30;1.70;99.90
15450;DHT22;7826;49.784;9.934;2024-01-15T08:34:56;1.70;99.90
15450;DHT22;7826;49.784;9.934;2024-01-15T08:37:22;1.60;99.90
15450;DHT22;7826;49.784;9.934;2024-01-15T08:39:48;1.80;99.90
15450;DHT22;7826;49.784;9.934;2024-01-15T08:42:14;1.70;99.90
15450;DHT22;7826;49.784;9.934;2024-01-15T08:44:40;1.70;99.90
15450;DHT22;7826;49.784;9.934;2024-01-15T08:47:09;1.80;99.90
15450;DHT22;7826;49.784;9.934;2024-01-15T08:49:35;1.70;99.90
15450;DHT22;7826;49.784;9.934;2024-01-15T08:52:02;1.70;99.90
15450;DHT22;7826;49.784;9.934;2024-01-15T08:54:28;1.70;99.90
15450;DHT22;7826;49.784;9.934;2024-01-15T08:56:54;1.70;99.90
15450;DHT22;7826;49.784;9.934;2024-01-15T08:59:20;1.70;99.90
15450;DHT22;7826;49.784;9.934;2024-01-15T09:01:51;1.70;99.90
15450;DHT22;7826;49.784;9.934;2024-01-15T09:04:17;1.70;99.90
15450;DHT22;7826;49.784;9.934;2024-01-15T09:06:47;1.70;99.90
15450;DHT22;7826;49.784;9.934;2024-01-15T09:09:13;1.70;99.90
15450;DHT22;7826;49.784;9.934;2024-01-15T09:11:41;1.70;99.90
15450;DHT22;7826;49.784;9.934;2024-01-15T09:14:07;1.70;99.90
15450;DHT22;7826;49.784;9.934;2024-01-15T09:16:34;1.80;99.90
15450;DHT22;7826;49.784;9.934;2024-01-15T09:19:00;1.70;99.90
15450;DHT22;7826;49.784;9.934;2024-01-15T09:21:26;1.80;99.90
15450;DHT22;7826;49.784;9.934;2024-01-15T09:23:52;1.80;99.90
15450;DHT22;7826;49.784;9.934;2024-01-15T09:26:19;1.80;99.90
15450;DHT22;7826;49.784;9.934;2024-01-15T09:28:45;1.80;99.90
15450;DHT22;7826;49.784;9.934;2024-01-15T09:31:11;1.80;99.90
15450;DHT22;7826;49.784;9.934;2024-01-15T09:33:37;1.80;99.90
15450;DHT22;7826;49.784;9.934;2024-01-15T09:36:04;1.80;99.90
15450;DHT22;7826;49.784;9.934;2024-01-15T09:38:31;1.90;99.90
15450;DHT22;7826;49.784;9.934;2024-01-15T09:40:57;1.60;99.90
15450;DHT22;7826;49.784;9.934;2024-01-15T09:43:24;1.90;99.90
15450;DHT22;7826;49.784;9.934;2024-01-15T09:45:51;2.00;99.90
15450;DHT22;7826;49.784;9.934;2024-01-15T09:48:17;2.00;99.90
15450;DHT22;7826;49.784;9.934;2024-01-15T09:50:43;1.90;99.90
15450;DHT22;7826;49.784;9.934;2024-01-15T09:53:09;1.90;99.90
15450;DHT22;7826;49.784;9.934;2024-01-15T09:55:37;2.00;99.90
15450;DHT22;7826;49.784;9.934;2024-01-15T09:58:06;2.10;99.90
15450;DHT22;7826;49.784;9.934;2024-01-15T10:00:33;2.10;99.90
15450;DHT22;7826;49.784;9.934;2024-01-15T10:03:03;2.10;99.90
15450;DHT22;7826;49.784;9.934;2024-01-15T10:05:29;2.00;99.90
15450;DHT22;7826;49.784;9.934;2024-01-15T10:07:57;2.00;99.90
15450;DHT22;7826;49.784;9.934;2024-01-15T10:10:23;2.10;99.90
15450;DHT22;7826;49.784;9.934;2024-01-15T10:12:50;2.10;99.90
15450;DHT22;7826;49.784;9.934;2024-01-15T10:15:16;2.20;99.90
15450;DHT22;7826;49.784;9.934;2024-01-15T10:17:43;2.20;99.90
15450;DHT22;7826;49.784;9.934;2024-01-15T10:20:10;2.20;99.90
15450;DHT22;7826;49.784;9.934;2024-01-15T10:22:45;2.20;99.90
15450;DHT22;7826;49.784;9.934;2024-01-15T10:25:14;2.20;99.90
15450;DHT22;7826;49.784;9.934;2024-01-15T10:27:41;2.20;99.90
15450;DHT22;7826;49.784;9.934;2024-01-15T10:30:09;2.30;99.90
15450;DHT22;7826;49.784;9.934;2024-01-15T10:32:35;2.30;99.90
15450;DHT22;7826;49.784;9.934;2024-01-15T10:35:01;2.30;99.90
15450;DHT22;7826;49.784;9.934;2024-01-15T10:37:28;2.30;99.90
15450;DHT22;7826;49.784;9.934;2024-01-15T10:39:54;2.30;99.90
15450;DHT22;7826;49.784;9.934;2024-01-15T10:42:20;2.40;99.90
15450;DHT22;7826;49.784;9.934;2024-01-15T10:44:46;2.40;99.90
15450;DHT22;7826;49.784;9.934;2024-01-15T10:47:13;2.40;99.90
15450;DHT22;7826;49.784;9.934;2024-01-15T10:49:41;2.30;99.90
15450;DHT22;7826;49.784;9.934;2024-01-15T10:52:07;2.20;99.90
15450;DHT22;7826;49.784;9.934;2024-01-15T10:54:34;2.10;99.90
15450;DHT22;7826;49.784;9.934;2024-01-15T10:57:02;2.00;99.90
15450;DHT22;7826;49.784;9.934;2024-01-15T10:59:28;1.80;99.90
15450;DHT22;7826;49.784;9.934;2024-01-15T11:01:55;1.60;99.90
15450;DHT22;7826;49.784;9.934;2024-01-15T11:04:21;1.60;99.90
15450;DHT22;7826;49.784;9.934;2024-01-15T11:06:53;1.60;99.90
15450;DHT22;7826;49.784;9.934;2024-01-15T11:09:19;1.70;99.90
15450;DHT22;7826;49.784;9.934;2024-01-15T11:11:47;1.60;99.90
15450;DHT22;7826;49.784;9.934;2024-01-15T11:14:38;1.60;99.90
15450;DHT22;7826;49.784;9.934;2024-01-15T11:17:05;1.70;99.90
15450;DHT22;7826;49.784;9.934;2024-01-15T11:19:42;1.70;99.90
15450;DHT22;7826;49.784;9.934;2024-01-15T11:22:09;1.60;99.90
15450;DHT22;7826;49.784;9.934;2024-01-15T11:24:39;1.60;99.90
15450;DHT22;7826;49.784;9.934;2024-01-15T11:27:09;1.70;99.90
15450;DHT22;7826;49.784;9.934;2024-01-15T11:29:36;1.80;99.90
15450;DHT22;7826;49.784;9.934;2024-01-15T11:32:09;1.80;99.90
15450;DHT22;7826;49.784;9.934;2024-01-15T11:34:56;1.80;99.90
15450;DHT22;7826;49.784;9.934;2024-01-15T11:37:25;1.70;99.90
15450;DHT22;7826;49.784;9.934;2024-01-15T11:39:53;1.70;99.90
15450;DHT22;7826;49.784;9.934;2024-01-15T11:42:21;1.70;99.90
15450;DHT22;7826;49.784;9.934;2024-01-15T11:44:47;1.70;99.90
15450;DHT22;7826;49.784;9.934;2024-01-15T11:47:14;1.70;99.90
15450;DHT22;7826;49.784;9.934;2024-01-15T11:49:59;1.70;99.90
15450;DHT22;7826;49.784;9.934;2024-01-15T11:52:31;1.70;99.90
15450;DHT22;7826;49.784;9.934;2024-01-15T11:55:16;1.60;99.90
15450;DHT22;7826;49.784;9.934;2024-01-15T11:57:51;1.70;99.90
15450;DHT22;7826;49.784;9.934;2024-01-15T12:00:18;1.60;99.90
15450;DHT22;7826;49.784;9.934;2024-01-15T12:02:46;1.60;99.90
15450;DHT22;7826;49.784;9.934;2024-01-15T12:05:14;2.30;99.90
15450;DHT22;7826;49.784;9.934;2024-01-15T12:07:48;1.70;99.90
15450;DHT22;7826;49.784;9.934;2024-01-15T12:10:19;1.70;99.90
15450;DHT22;7826;49.784;9.934;2024-01-15T12:13:05;1.70;99.90
15450;DHT22;7826;49.784;9.934;2024-01-15T12:15:32;1.50;99.90
15450;DHT22;7826;49.784;9.934;2024-01-15T12:18:00;1.50;99.90
15450;DHT22;7826;49.784;9.934;2024-01-15T12:20:29;1.40;99.90
15450;DHT22;7826;49.784;9.934;2024-01-15T12:22:55;1.30;99.90
15450;DHT22;7826;49.784;9.934;2024-01-15T12:25:23;1.30;99.90
15450;DHT22;7826;49.784;9.934;2024-01-15T12:27:49;1.20;99.90
15450;DHT22;7826;49.784;9.934;2024-01-15T12:30:16;1.20;99.90
15450;DHT22;7826;49.784;9.934;2024-01-15T12:32:43;1.20;99.90
15450;DHT22;7826;49.784;9.934;2024-01-15T12:35:10;1.20;99.90
15450;DHT22;7826;49.784;9.934;2024-01-15T12:37:38;1.20;99.90
15450;DHT22;7826;49.784;9.934;2024-01-15T12:40:06;1.20;99.90
15450;DHT22;7826;49.784;9.934;2024-01-15T12:42:33;1.30;99.90
15450;DHT22;7826;49.784;9.934;2024-01-15T12:45:04;1.30;99.90
15450;DHT22;7826;49.784;9.934;2024-01-15T12:47:31;1.40;99.90
15450;DHT22;7826;49.784;9.934;2024-01-15T12:49:58;1.50;99.90
15450;DHT22;7826;49.784;9.934;2024-01-15T12:52:29;1.50;99.90
15450;DHT22;7826;49.784;9.934;2024-01-15T12:54:55;1.50;99.90
15450;DHT22;7826;49.784;9.934;2024-01-15T12:57:22;1.50;99.90
15450;DHT22;7826;49.784;9.934;2024-01-15T12:59:49;1.50;99.90
15450;DHT22;7826;49.784;9.934;2024-01-15T13:02:18;1.50;99.90
15450;DHT22;7826;49.784;9.934;2024-01-15T13:04:44;1.50;99.90
15450;DHT22;7826;49.784;9.934;2024-01-15T13:07:11;1.50;99.90
15450;DHT22;7826;49.784;9.934;2024-01-15T13:09:37;1.50;99.90
15450;DHT22;7826;49.784;9.934;2024-01-15T13:12:03;1.50;99.90
15450;DHT22;7826;49.784;9.934;2024-01-15T13:14:30;1.50;99.90
15450;DHT22;7826;49.784;9.934;2024-01-15T13:16:56;1.60;99.90
15450;DHT22;7826;49.784;9.934;2024-01-15T13:19:23;1.50;99.90
15450;DHT22;7826;49.784;9.934;2024-01-15T13:21:49;1.50;99.90
15450;DHT22;7826;49.784;9.934;2024-01-15T13:24:20;1.50;99.90
15450;DHT22;7826;49.784;9.934;2024-01-15T13:26:46;1.50;99.90
15450;DHT22;7826;49.784;9.934;2024-01-15T13:29:13;1.50;99.90
15450;DHT22;7826;49.784;9.934;2024-01-15T13:31:39;1.50;99.90
15450;DHT22;7826;49.784;9.934;2024-01-15T13:34:05;1.40;99.90
15450;DHT22;7826;49.784;9.934;2024-01-15T13:36:33;1.40;99.90
15450;DHT22;7826;49.784;9.934;2024-01-15T13:38:59;1.30;99.90
15450;DHT22;7826;49.784;9.934;2024-01-15T13:41:25;1.40;99.90
15450;DHT22;7826;49.784;9.934;2024-01-15T13:43:54;1.50;99.90
15450;DHT22;7826;49.784;9.934;2024-01-15T13:46:25;1.40;99.90
15450;DHT22;7826;49.784;9.934;2024-01-15T13:48:53;1.40;99.90
15450;DHT22;7826;49.784;9.934;2024-01-15T13:51:22;1.40;99.90
15450;DHT22;7826;49.784;9.934;2024-01-15T13:53:48;1.50;99.90
15450;DHT22;7826;49.784;9.934;2024-01-15T13:56:15;1.40;99.90
15450;DHT22;7826;49.784;9.934;2024-01-15T13:58:41;1.40;99.90
15450;DHT22;7826;49.784;9.934;2024-01-15T14:01:09;1.40;99.90
15450;DHT22;7826;49.784;9.934;2024-01-15T14:03:35;1.40;99.90
15450;DHT22;7826;49.784;9.934;2024-01-15T14:06:01;1.40;99.90
15450;DHT22;7826;49.784;9.934;2024-01-15T14:08:35;1.40;99.90
15450;DHT22;7826;49.784;9.934;2024-01-15T14:11:03;1.50;99.90
15450;DHT22;7826;49.784;9.934;2024-01-15T14:13:29;1.50;99.90
15450;DHT22;7826;49.784;9.934;2024-01-15T14:15:55;1.40;99.90
15450;DHT22;7826;49.784;9.934;2024-01-15T14:18:22;1.40;99.90
15450;DHT22;7826;49.784;9.934;2024-01-15T14:20:48;1.40;99.90
15450;DHT22;7826;49.784;9.934;2024-01-15T14:23:14;1.50;99.90
15450;DHT22;7826;49.784;9.934;2024-01-15T14:25:40;1.40;99.90
15450;DHT22;7826;49.784;9.934;2024-01-15T14:28:06;1.50;99.90
15450;DHT22;7826;49.784;9.934;2024-01-15T14:30:32;1.40;99.90
15450;DHT22;7826;49.784;9.934;2024-01-15T14:32:58;1.40;99.90
15450;DHT22;7826;49.784;9.934;2024-01-15T14:35:25;1.40;99.90
15450;DHT22;7826;49.784;9.934;2024-01-15T14:37:51;1.30;99.90
15450;DHT22;7826;49.784;9.934;2024-01-15T14:40:17;1.30;99.90
15450;DHT22;7826;49.784;9.934;2024-01-15T14:42:44;1.30;99.90
15450;DHT22;7826;49.784;9.934;2024-01-15T14:45:10;1.30;99.90
15450;DHT22;7826;49.784;9.934;2024-01-15T14:47:39;1.30;99.90
15450;DHT22;7826;49.784;9.934;2024-01-15T14:50:07;1.20;99.90
15450;DHT22;7826;49.784;9.934;2024-01-15T14:52:33;1.20;99.90
15450;DHT22;7826;49.784;9.934;2024-01-15T14:55:00;1.20;99.90
15450;DHT22;7826;49.784;9.934;2024-01-15T14:57:26;1.20;99.90
15450;DHT22;7826;49.784;9.934;2024-01-15T14:59:52;1.20;99.90
15450;DHT22;7826;49.784;9.934;2024-01-15T15:02:19;1.20;99.90
15450;DHT22;7826;49.784;9.934;2024-01-15T15:04:46;1.30;99.90
15450;DHT22;7826;49.784;9.934;2024-01-15T15:07:12;1.30;99.90
15450;DHT22;7826;49.784;9.934;2024-01-15T15:09:39;1.20;99.90
15450;DHT22;7826;49.784;9.934;2024-01-15T15:12:05;1.10;99.90
15450;DHT22;7826;49.784;9.934;2024-01-15T15:14:33;1.20;99.90
15450;DHT22;7826;49.784;9.934;2024-01-15T15:17:06;1.20;99.90
15450;DHT22;7826;49.784;9.934;2024-01-15T15:19:32;1.20;99.90
15450;DHT22;7826;49.784;9.934;2024-01-15T15:21:59;1.20;99.90
15450;DHT22;7826;49.784;9.934;2024-01-15T15:24:25;1.20;99.90
15450;DHT22;7826;49.784;9.934;2024-01-15T15:26:52;1.20;99.90
15450;DHT22;7826;49.784;9.934;2024-01-15T15:29:18;1.10;99.90
15450;DHT22;7826;49.784;9.934;2024-01-15T15:31:45;1.10;99.90
15450;DHT22;7826;49.784;9.934;2024-01-15T15:34:12;1.10;99.90
15450;DHT22;7826;49.784;9.934;2024-01-15T15:36:38;1.10;99.90
15450;DHT22;7826;49.784;9.934;2024-01-15T15:39:04;1.10;99.90
15450;DHT22;7826;49.784;9.934;2024-01-15T15:41:31;1.10;99.90
15450;DHT22;7826;49.784;9.934;2024-01-15T15:43:57;1.10;99.90
15450;DHT22;7826;49.784;9.934;2024-01-15T15:46:23;1.10;99.90
15450;DHT22;7826;49.784;9.934;2024-01-15T15:48:49;1.10;99.90
15450;DHT22;7826;49.784;9.934;2024-01-15T15:51:15;1.00;99.90
15450;DHT22;7826;49.784;9.934;2024-01-15T15:53:43;1.10;99.90
15450;DHT22;7826;49.784;9.934;2024-01-15T15:56:09;1.10;99.90
15450;DHT22;7826;49.784;9.934;2024-01-15T15:58:36;1.10;99.90